Accueil
METAR-TAF:

METAR-TAF

Aéroports :

Aéroport international Hévíz-Balaton

Hévíz, Hongrie

latitude: 46-41-11N, longitude: 017-09-33E, altitude: 124 m

Observation

Le bulletin a été fait il y a 50 minutes, à 14:15 UTC
Vent 7 kt de sud/sud-ouest, variant entre sud et ouest/sud-ouest
Température 22°C
Humidité 46%
Pression 1015 hPa
Visibilité 10 km ou plus
pas de nuages en-dessous de 1500 mètres et pas de cumulonimbus.

METAR: LHSM 141415Z AUTO 21007KT 170V250 CAVOK 22/10 Q1015

Heure: 17:05 (15:05 UTC)

Prévision

Le bulletin a été fait il y a 3 heures et 50 minutes, à 11:15 UTC
Prévision valable du 14 à 12 UTC au 14 à 21 UTC
Vent 8 kt de sud/sud-ouest
Visibilité 10 km ou plus
pas de nuages en-dessous de 1500 mètres et pas de cumulonimbus.
Evoluant progressivement
du 14 à 18 UTC au 14 à 21 UTC
Vent 3 kt de direction variable

TAF: LHSM 141115Z 1412/1421 20008KT CAVOK BECMG 1418/1421 VRB03KT

Observations et prévisions météorologiques de plus de 4000 aéroports (messages METAR et TAF).

Les stations disponibles sont représentées par des disques jaunes et rouges sur la carte.

Passer la souris dessus pour voir le nom de la station.

Cliquer dessus pour voir les observations et prévisions météorologiques.

Pour changer de carte: cliquez sur les boutons verts avec une croix noire pour zoomer, sur le bouton vert avec un tiret pour effectuer un zoom arrière, ou sur les flèches vertes pour les cartes adjacentes.


METAR-TAF: